sensor_id;sensor_type;location;lat;lon;timestamp;P1;durP1;ratioP1;P2;durP2;ratioP2
12163;SDS011;6145;50.192;10.064;2022-12-18T00:02:21;17.67;;;15.00;;
12163;SDS011;6145;50.192;10.064;2022-12-18T00:04:48;17.43;;;14.80;;
12163;SDS011;6145;50.192;10.064;2022-12-18T00:07:14;23.27;;;14.97;;
12163;SDS011;6145;50.192;10.064;2022-12-18T00:09:41;21.67;;;15.47;;
12163;SDS011;6145;50.192;10.064;2022-12-18T00:12:10;22.63;;;15.43;;
12163;SDS011;6145;50.192;10.064;2022-12-18T00:14:36;19.77;;;15.10;;
12163;SDS011;6145;50.192;10.064;2022-12-18T00:17:03;17.83;;;14.10;;
12163;SDS011;6145;50.192;10.064;2022-12-18T00:19:31;21.30;;;15.03;;
12163;SDS011;6145;50.192;10.064;2022-12-18T00:21:58;19.37;;;13.87;;
12163;SDS011;6145;50.192;10.064;2022-12-18T00:24:25;17.67;;;14.07;;
12163;SDS011;6145;50.192;10.064;2022-12-18T00:26:52;16.97;;;13.20;;
12163;SDS011;6145;50.192;10.064;2022-12-18T00:29:20;22.30;;;14.97;;
12163;SDS011;6145;50.192;10.064;2022-12-18T00:31:47;22.33;;;15.33;;
12163;SDS011;6145;50.192;10.064;2022-12-18T00:34:16;22.30;;;14.20;;
12163;SDS011;6145;50.192;10.064;2022-12-18T00:36:43;20.77;;;15.47;;
12163;SDS011;6145;50.192;10.064;2022-12-18T00:39:10;20.33;;;13.57;;
12163;SDS011;6145;50.192;10.064;2022-12-18T00:41:37;18.37;;;14.03;;
12163;SDS011;6145;50.192;10.064;2022-12-18T00:44:23;17.00;;;13.80;;
12163;SDS011;6145;50.192;10.064;2022-12-18T00:46:50;19.40;;;13.87;;
12163;SDS011;6145;50.192;10.064;2022-12-18T00:49:17;20.10;;;14.43;;
12163;SDS011;6145;50.192;10.064;2022-12-18T00:51:45;20.90;;;14.47;;
12163;SDS011;6145;50.192;10.064;2022-12-18T00:54:12;18.53;;;13.70;;
12163;SDS011;6145;50.192;10.064;2022-12-18T00:56:39;17.43;;;13.00;;
12163;SDS011;6145;50.192;10.064;2022-12-18T00:59:06;17.67;;;13.33;;
12163;SDS011;6145;50.192;10.064;2022-12-18T01:01:34;18.13;;;13.70;;
12163;SDS011;6145;50.192;10.064;2022-12-18T01:04:02;19.80;;;14.30;;
12163;SDS011;6145;50.192;10.064;2022-12-18T01:06:29;19.67;;;13.57;;
12163;SDS011;6145;50.192;10.064;2022-12-18T01:08:56;20.20;;;15.10;;
12163;SDS011;6145;50.192;10.064;2022-12-18T01:11:23;20.10;;;15.23;;
12163;SDS011;6145;50.192;10.064;2022-12-18T01:13:51;18.77;;;13.93;;
12163;SDS011;6145;50.192;10.064;2022-12-18T01:16:19;18.93;;;14.07;;
12163;SDS011;6145;50.192;10.064;2022-12-18T01:18:47;22.17;;;15.37;;
12163;SDS011;6145;50.192;10.064;2022-12-18T01:21:16;20.60;;;15.57;;
12163;SDS011;6145;50.192;10.064;2022-12-18T01:23:45;17.93;;;15.10;;
12163;SDS011;6145;50.192;10.064;2022-12-18T01:26:13;19.77;;;14.63;;
12163;SDS011;6145;50.192;10.064;2022-12-18T01:28:41;20.80;;;14.77;;
12163;SDS011;6145;50.192;10.064;2022-12-18T01:31:09;27.50;;;18.07;;
12163;SDS011;6145;50.192;10.064;2022-12-18T01:33:37;23.10;;;17.37;;
12163;SDS011;6145;50.192;10.064;2022-12-18T01:36:05;20.97;;;15.37;;
12163;SDS011;6145;50.192;10.064;2022-12-18T01:38:33;21.97;;;15.57;;
12163;SDS011;6145;50.192;10.064;2022-12-18T01:40:59;21.70;;;14.67;;
12163;SDS011;6145;50.192;10.064;2022-12-18T01:43:43;19.90;;;15.10;;
12163;SDS011;6145;50.192;10.064;2022-12-18T01:46:11;20.83;;;16.03;;
12163;SDS011;6145;50.192;10.064;2022-12-18T01:48:38;20.20;;;15.17;;
12163;SDS011;6145;50.192;10.064;2022-12-18T01:51:07;19.50;;;14.53;;
12163;SDS011;6145;50.192;10.064;2022-12-18T02:00:20;18.80;;;14.27;;
12163;SDS011;6145;50.192;10.064;2022-12-18T02:02:48;22.10;;;15.10;;
12163;SDS011;6145;50.192;10.064;2022-12-18T02:05:16;18.60;;;13.43;;
12163;SDS011;6145;50.192;10.064;2022-12-18T02:07:52;18.20;;;13.83;;
12163;SDS011;6145;50.192;10.064;2022-12-18T02:10:29;19.20;;;14.10;;
12163;SDS011;6145;50.192;10.064;2022-12-18T02:13:03;19.23;;;14.93;;
12163;SDS011;6145;50.192;10.064;2022-12-18T02:15:39;19.10;;;13.67;;
12163;SDS011;6145;50.192;10.064;2022-12-18T02:18:11;18.23;;;14.07;;
12163;SDS011;6145;50.192;10.064;2022-12-18T02:20:43;17.53;;;12.77;;
12163;SDS011;6145;50.192;10.064;2022-12-18T02:23:19;22.27;;;14.87;;
12163;SDS011;6145;50.192;10.064;2022-12-18T02:26:07;19.97;;;14.07;;
12163;SDS011;6145;50.192;10.064;2022-12-18T02:28:45;16.63;;;12.70;;
12163;SDS011;6145;50.192;10.064;2022-12-18T02:31:17;16.87;;;13.87;;
12163;SDS011;6145;50.192;10.064;2022-12-18T02:33:47;17.13;;;12.40;;
12163;SDS011;6145;50.192;10.064;2022-12-18T02:36:15;20.00;;;13.60;;
12163;SDS011;6145;50.192;10.064;2022-12-18T02:38:43;18.87;;;13.53;;
12163;SDS011;6145;50.192;10.064;2022-12-18T02:41:13;15.17;;;11.97;;
12163;SDS011;6145;50.192;10.064;2022-12-18T02:43:45;19.33;;;13.83;;
12163;SDS011;6145;50.192;10.064;2022-12-18T02:46:26;19.03;;;13.73;;
12163;SDS011;6145;50.192;10.064;2022-12-18T02:51:49;19.83;;;13.20;;
12163;SDS011;6145;50.192;10.064;2022-12-18T02:54:21;20.33;;;13.43;;
12163;SDS011;6145;50.192;10.064;2022-12-18T02:56:57;19.33;;;13.43;;
12163;SDS011;6145;50.192;10.064;2022-12-18T02:59:33;20.57;;;13.73;;
12163;SDS011;6145;50.192;10.064;2022-12-18T03:02:09;16.17;;;12.27;;
12163;SDS011;6145;50.192;10.064;2022-12-18T03:04:43;16.63;;;12.93;;
12163;SDS011;6145;50.192;10.064;2022-12-18T03:07:16;18.17;;;13.53;;
12163;SDS011;6145;50.192;10.064;2022-12-18T03:09:46;18.17;;;13.40;;
12163;SDS011;6145;50.192;10.064;2022-12-18T03:12:19;18.00;;;13.10;;
12163;SDS011;6145;50.192;10.064;2022-12-18T03:14:50;17.13;;;13.23;;
12163;SDS011;6145;50.192;10.064;2022-12-18T03:17:22;17.73;;;12.97;;
12163;SDS011;6145;50.192;10.064;2022-12-18T03:19:51;19.63;;;13.73;;
12163;SDS011;6145;50.192;10.064;2022-12-18T03:22:20;18.90;;;13.40;;
12163;SDS011;6145;50.192;10.064;2022-12-18T03:24:50;16.27;;;12.00;;
12163;SDS011;6145;50.192;10.064;2022-12-18T03:27:20;18.17;;;12.77;;
12163;SDS011;6145;50.192;10.064;2022-12-18T03:29:50;19.63;;;13.60;;
12163;SDS011;6145;50.192;10.064;2022-12-18T03:32:24;17.30;;;13.10;;
12163;SDS011;6145;50.192;10.064;2022-12-18T03:34:55;18.53;;;13.13;;
12163;SDS011;6145;50.192;10.064;2022-12-18T03:37:24;17.97;;;13.20;;
12163;SDS011;6145;50.192;10.064;2022-12-18T03:39:51;18.77;;;13.13;;
12163;SDS011;6145;50.192;10.064;2022-12-18T03:42:21;20.00;;;13.40;;
12163;SDS011;6145;50.192;10.064;2022-12-18T03:44:54;16.03;;;12.23;;
12163;SDS011;6145;50.192;10.064;2022-12-18T03:47:25;17.27;;;12.43;;
12163;SDS011;6145;50.192;10.064;2022-12-18T03:49:56;16.00;;;11.63;;
12163;SDS011;6145;50.192;10.064;2022-12-18T03:52:30;15.33;;;11.43;;
12163;SDS011;6145;50.192;10.064;2022-12-18T03:55:02;18.03;;;12.63;;
12163;SDS011;6145;50.192;10.064;2022-12-18T03:57:32;18.33;;;12.73;;
12163;SDS011;6145;50.192;10.064;2022-12-18T04:00:00;18.00;;;13.73;;
12163;SDS011;6145;50.192;10.064;2022-12-18T04:02:29;13.00;;;11.10;;
12163;SDS011;6145;50.192;10.064;2022-12-18T04:04:59;14.87;;;11.63;;
12163;SDS011;6145;50.192;10.064;2022-12-18T04:07:29;15.17;;;12.23;;
12163;SDS011;6145;50.192;10.064;2022-12-18T04:09:56;14.93;;;11.20;;
12163;SDS011;6145;50.192;10.064;2022-12-18T04:12:28;16.27;;;12.70;;
12163;SDS011;6145;50.192;10.064;2022-12-18T04:14:57;17.93;;;12.83;;
12163;SDS011;6145;50.192;10.064;2022-12-18T04:17:23;17.97;;;13.40;;
12163;SDS011;6145;50.192;10.064;2022-12-18T04:19:50;18.27;;;13.43;;
12163;SDS011;6145;50.192;10.064;2022-12-18T04:22:17;15.97;;;11.57;;
12163;SDS011;6145;50.192;10.064;2022-12-18T04:24:44;16.67;;;12.80;;
12163;SDS011;6145;50.192;10.064;2022-12-18T04:27:11;15.80;;;12.20;;
12163;SDS011;6145;50.192;10.064;2022-12-18T04:29:38;15.33;;;12.50;;
12163;SDS011;6145;50.192;10.064;2022-12-18T04:32:08;18.43;;;12.97;;
12163;SDS011;6145;50.192;10.064;2022-12-18T04:34:35;19.37;;;11.93;;
12163;SDS011;6145;50.192;10.064;2022-12-18T04:37:02;20.30;;;13.57;;
12163;SDS011;6145;50.192;10.064;2022-12-18T04:39:29;15.60;;;12.07;;
12163;SDS011;6145;50.192;10.064;2022-12-18T04:41:56;17.47;;;12.63;;
12163;SDS011;6145;50.192;10.064;2022-12-18T04:44:25;18.13;;;12.80;;
12163;SDS011;6145;50.192;10.064;2022-12-18T04:46:52;18.97;;;13.80;;
12163;SDS011;6145;50.192;10.064;2022-12-18T04:49:20;25.57;;;17.53;;
12163;SDS011;6145;50.192;10.064;2022-12-18T04:51:47;23.37;;;16.80;;
12163;SDS011;6145;50.192;10.064;2022-12-18T04:54:14;15.80;;;13.33;;
12163;SDS011;6145;50.192;10.064;2022-12-18T04:56:41;23.03;;;14.50;;
12163;SDS011;6145;50.192;10.064;2022-12-18T04:59:08;22.67;;;14.27;;
12163;SDS011;6145;50.192;10.064;2022-12-18T05:01:35;17.33;;;13.47;;
12163;SDS011;6145;50.192;10.064;2022-12-18T05:04:02;18.00;;;13.27;;
12163;SDS011;6145;50.192;10.064;2022-12-18T05:06:30;18.23;;;12.93;;
12163;SDS011;6145;50.192;10.064;2022-12-18T05:08:57;15.93;;;13.23;;
12163;SDS011;6145;50.192;10.064;2022-12-18T05:11:24;16.73;;;13.03;;
12163;SDS011;6145;50.192;10.064;2022-12-18T05:13:51;17.17;;;12.00;;
12163;SDS011;6145;50.192;10.064;2022-12-18T05:16:18;17.80;;;13.00;;
12163;SDS011;6145;50.192;10.064;2022-12-18T05:18:45;17.70;;;13.10;;
12163;SDS011;6145;50.192;10.064;2022-12-18T05:21:12;16.33;;;12.57;;
12163;SDS011;6145;50.192;10.064;2022-12-18T05:23:41;17.53;;;12.07;;
12163;SDS011;6145;50.192;10.064;2022-12-18T05:26:08;16.80;;;12.37;;
12163;SDS011;6145;50.192;10.064;2022-12-18T05:28:35;15.33;;;11.30;;
12163;SDS011;6145;50.192;10.064;2022-12-18T05:31:02;17.23;;;12.90;;
12163;SDS011;6145;50.192;10.064;2022-12-18T05:33:30;17.80;;;12.93;;
12163;SDS011;6145;50.192;10.064;2022-12-18T05:35:58;15.63;;;11.73;;
12163;SDS011;6145;50.192;10.064;2022-12-18T05:38:26;13.83;;;10.93;;
12163;SDS011;6145;50.192;10.064;2022-12-18T05:40:56;17.07;;;11.83;;
12163;SDS011;6145;50.192;10.064;2022-12-18T05:43:24;20.00;;;13.97;;
12163;SDS011;6145;50.192;10.064;2022-12-18T05:45:52;17.43;;;12.67;;
12163;SDS011;6145;50.192;10.064;2022-12-18T05:48:19;14.90;;;12.17;;
12163;SDS011;6145;50.192;10.064;2022-12-18T05:50:47;15.30;;;11.27;;
12163;SDS011;6145;50.192;10.064;2022-12-18T05:53:16;19.00;;;13.50;;
12163;SDS011;6145;50.192;10.064;2022-12-18T05:55:45;17.30;;;12.80;;
12163;SDS011;6145;50.192;10.064;2022-12-18T05:58:14;18.40;;;12.97;;
12163;SDS011;6145;50.192;10.064;2022-12-18T06:00:42;14.97;;;11.43;;
12163;SDS011;6145;50.192;10.064;2022-12-18T06:03:12;17.53;;;11.90;;
12163;SDS011;6145;50.192;10.064;2022-12-18T06:05:40;18.10;;;12.93;;
12163;SDS011;6145;50.192;10.064;2022-12-18T06:08:07;16.97;;;13.33;;
12163;SDS011;6145;50.192;10.064;2022-12-18T06:10:35;17.73;;;12.23;;
12163;SDS011;6145;50.192;10.064;2022-12-18T06:13:02;18.77;;;14.27;;
12163;SDS011;6145;50.192;10.064;2022-12-18T06:15:31;20.00;;;13.73;;
12163;SDS011;6145;50.192;10.064;2022-12-18T06:17:59;16.53;;;12.47;;
12163;SDS011;6145;50.192;10.064;2022-12-18T06:20:26;16.77;;;12.43;;
12163;SDS011;6145;50.192;10.064;2022-12-18T06:22:57;17.77;;;12.50;;
12163;SDS011;6145;50.192;10.064;2022-12-18T06:25:24;19.47;;;12.93;;
12163;SDS011;6145;50.192;10.064;2022-12-18T06:27:51;18.47;;;12.90;;
12163;SDS011;6145;50.192;10.064;2022-12-18T06:30:17;19.77;;;13.20;;
12163;SDS011;6145;50.192;10.064;2022-12-18T06:32:46;17.03;;;12.13;;
12163;SDS011;6145;50.192;10.064;2022-12-18T06:35:14;18.47;;;13.10;;
12163;SDS011;6145;50.192;10.064;2022-12-18T06:37:41;17.10;;;13.13;;
12163;SDS011;6145;50.192;10.064;2022-12-18T06:40:08;19.80;;;12.77;;
12163;SDS011;6145;50.192;10.064;2022-12-18T06:42:36;23.77;;;15.53;;
12163;SDS011;6145;50.192;10.064;2022-12-18T06:45:03;17.13;;;13.33;;
12163;SDS011;6145;50.192;10.064;2022-12-18T06:47:30;20.33;;;13.73;;
12163;SDS011;6145;50.192;10.064;2022-12-18T06:49:58;18.17;;;13.13;;
12163;SDS011;6145;50.192;10.064;2022-12-18T06:52:25;17.37;;;12.93;;
12163;SDS011;6145;50.192;10.064;2022-12-18T06:54:52;17.70;;;12.60;;
12163;SDS011;6145;50.192;10.064;2022-12-18T06:57:18;19.73;;;14.60;;
12163;SDS011;6145;50.192;10.064;2022-12-18T06:59:46;17.53;;;13.27;;
12163;SDS011;6145;50.192;10.064;2022-12-18T07:02:12;18.27;;;13.03;;
12163;SDS011;6145;50.192;10.064;2022-12-18T07:04:39;22.70;;;15.60;;
12163;SDS011;6145;50.192;10.064;2022-12-18T07:07:08;20.43;;;14.33;;
12163;SDS011;6145;50.192;10.064;2022-12-18T07:09:35;20.43;;;13.73;;
12163;SDS011;6145;50.192;10.064;2022-12-18T07:12:02;18.97;;;13.77;;
12163;SDS011;6145;50.192;10.064;2022-12-18T07:14:29;18.97;;;13.10;;
12163;SDS011;6145;50.192;10.064;2022-12-18T07:16:56;18.57;;;13.77;;
12163;SDS011;6145;50.192;10.064;2022-12-18T07:19:23;18.47;;;13.07;;
12163;SDS011;6145;50.192;10.064;2022-12-18T07:21:50;19.50;;;12.67;;
12163;SDS011;6145;50.192;10.064;2022-12-18T07:24:18;17.03;;;12.63;;
12163;SDS011;6145;50.192;10.064;2022-12-18T07:26:45;17.23;;;12.97;;
12163;SDS011;6145;50.192;10.064;2022-12-18T07:29:12;19.80;;;12.97;;
12163;SDS011;6145;50.192;10.064;2022-12-18T07:31:40;18.30;;;12.93;;
12163;SDS011;6145;50.192;10.064;2022-12-18T07:34:09;18.43;;;13.73;;
12163;SDS011;6145;50.192;10.064;2022-12-18T07:36:36;22.70;;;13.57;;
12163;SDS011;6145;50.192;10.064;2022-12-18T07:39:03;21.37;;;14.00;;
12163;SDS011;6145;50.192;10.064;2022-12-18T07:41:32;19.23;;;13.10;;
12163;SDS011;6145;50.192;10.064;2022-12-18T07:43:59;18.03;;;13.90;;
12163;SDS011;6145;50.192;10.064;2022-12-18T07:46:26;19.53;;;14.07;;
12163;SDS011;6145;50.192;10.064;2022-12-18T07:48:53;18.97;;;14.53;;
12163;SDS011;6145;50.192;10.064;2022-12-18T07:51:20;21.80;;;13.40;;
12163;SDS011;6145;50.192;10.064;2022-12-18T07:53:47;22.00;;;16.10;;
12163;SDS011;6145;50.192;10.064;2022-12-18T07:56:14;17.17;;;12.57;;
12163;SDS011;6145;50.192;10.064;2022-12-18T07:58:42;18.23;;;13.50;;
12163;SDS011;6145;50.192;10.064;2022-12-18T08:01:11;21.93;;;14.03;;
12163;SDS011;6145;50.192;10.064;2022-12-18T08:03:39;17.37;;;13.17;;
12163;SDS011;6145;50.192;10.064;2022-12-18T08:06:07;22.70;;;13.93;;
12163;SDS011;6145;50.192;10.064;2022-12-18T08:08:35;19.67;;;13.60;;
12163;SDS011;6145;50.192;10.064;2022-12-18T08:11:03;19.17;;;13.77;;
12163;SDS011;6145;50.192;10.064;2022-12-18T08:13:30;16.77;;;12.90;;
12163;SDS011;6145;50.192;10.064;2022-12-18T08:15:58;23.37;;;14.70;;
12163;SDS011;6145;50.192;10.064;2022-12-18T08:18:27;26.70;;;18.10;;
12163;SDS011;6145;50.192;10.064;2022-12-18T08:20:55;28.50;;;17.63;;
12163;SDS011;6145;50.192;10.064;2022-12-18T08:23:22;25.57;;;17.90;;
12163;SDS011;6145;50.192;10.064;2022-12-18T08:25:49;25.20;;;17.43;;
12163;SDS011;6145;50.192;10.064;2022-12-18T08:28:16;26.83;;;19.00;;
12163;SDS011;6145;50.192;10.064;2022-12-18T08:30:43;24.43;;;17.50;;
12163;SDS011;6145;50.192;10.064;2022-12-18T08:33:11;29.53;;;19.80;;
12163;SDS011;6145;50.192;10.064;2022-12-18T08:35:38;32.80;;;21.07;;
12163;SDS011;6145;50.192;10.064;2022-12-18T08:38:05;28.27;;;19.57;;
12163;SDS011;6145;50.192;10.064;2022-12-18T08:40:32;27.53;;;18.93;;
12163;SDS011;6145;50.192;10.064;2022-12-18T08:42:58;27.37;;;19.70;;
12163;SDS011;6145;50.192;10.064;2022-12-18T08:45:42;30.47;;;19.23;;
12163;SDS011;6145;50.192;10.064;2022-12-18T08:48:09;29.37;;;20.37;;
12163;SDS011;6145;50.192;10.064;2022-12-18T08:50:38;26.47;;;19.17;;
12163;SDS011;6145;50.192;10.064;2022-12-18T08:53:04;33.30;;;21.90;;
12163;SDS011;6145;50.192;10.064;2022-12-18T08:55:31;37.50;;;23.83;;
12163;SDS011;6145;50.192;10.064;2022-12-18T08:57:58;37.77;;;25.00;;
12163;SDS011;6145;50.192;10.064;2022-12-18T09:00:25;33.50;;;24.17;;
12163;SDS011;6145;50.192;10.064;2022-12-18T09:02:52;42.07;;;26.33;;
12163;SDS011;6145;50.192;10.064;2022-12-18T09:05:20;37.33;;;24.80;;
12163;SDS011;6145;50.192;10.064;2022-12-18T09:07:47;40.37;;;25.37;;
12163;SDS011;6145;50.192;10.064;2022-12-18T09:10:14;37.77;;;23.00;;
12163;SDS011;6145;50.192;10.064;2022-12-18T09:12:41;41.47;;;25.50;;
12163;SDS011;6145;50.192;10.064;2022-12-18T09:15:08;43.07;;;24.47;;
12163;SDS011;6145;50.192;10.064;2022-12-18T09:17:35;41.67;;;24.10;;
12163;SDS011;6145;50.192;10.064;2022-12-18T09:20:02;52.37;;;31.30;;
12163;SDS011;6145;50.192;10.064;2022-12-18T09:22:30;43.20;;;23.47;;
12163;SDS011;6145;50.192;10.064;2022-12-18T09:24:57;41.27;;;24.13;;
12163;SDS011;6145;50.192;10.064;2022-12-18T09:27:24;42.67;;;25.23;;
12163;SDS011;6145;50.192;10.064;2022-12-18T09:29:51;39.60;;;24.33;;
12163;SDS011;6145;50.192;10.064;2022-12-18T09:32:18;43.40;;;23.77;;
12163;SDS011;6145;50.192;10.064;2022-12-18T09:34:45;40.10;;;24.30;;
12163;SDS011;6145;50.192;10.064;2022-12-18T09:37:11;44.50;;;27.20;;
12163;SDS011;6145;50.192;10.064;2022-12-18T09:39:39;40.23;;;23.80;;
12163;SDS011;6145;50.192;10.064;2022-12-18T09:42:06;37.83;;;22.10;;
12163;SDS011;6145;50.192;10.064;2022-12-18T09:44:43;39.17;;;23.47;;
12163;SDS011;6145;50.192;10.064;2022-12-18T09:47:14;46.93;;;25.73;;
12163;SDS011;6145;50.192;10.064;2022-12-18T09:49:45;43.77;;;22.33;;
12163;SDS011;6145;50.192;10.064;2022-12-18T09:52:16;36.90;;;23.77;;
12163;SDS011;6145;50.192;10.064;2022-12-18T09:54:49;43.90;;;24.07;;
12163;SDS011;6145;50.192;10.064;2022-12-18T09:57:20;39.20;;;23.27;;
12163;SDS011;6145;50.192;10.064;2022-12-18T09:59:50;37.17;;;21.60;;
12163;SDS011;6145;50.192;10.064;2022-12-18T10:02:21;34.07;;;21.30;;
12163;SDS011;6145;50.192;10.064;2022-12-18T10:04:54;42.00;;;25.47;;
12163;SDS011;6145;50.192;10.064;2022-12-18T10:07:32;41.27;;;24.53;;
12163;SDS011;6145;50.192;10.064;2022-12-18T10:10:14;41.33;;;25.30;;
12163;SDS011;6145;50.192;10.064;2022-12-18T10:12:50;40.53;;;23.63;;
12163;SDS011;6145;50.192;10.064;2022-12-18T10:15:24;42.70;;;23.27;;
12163;SDS011;6145;50.192;10.064;2022-12-18T10:17:57;42.53;;;26.33;;
12163;SDS011;6145;50.192;10.064;2022-12-18T10:20:29;39.97;;;23.90;;
12163;SDS011;6145;50.192;10.064;2022-12-18T10:23:04;43.43;;;25.30;;
12163;SDS011;6145;50.192;10.064;2022-12-18T10:25:42;41.00;;;23.23;;
12163;SDS011;6145;50.192;10.064;2022-12-18T10:28:16;37.17;;;21.77;;
12163;SDS011;6145;50.192;10.064;2022-12-18T10:30:45;42.83;;;25.43;;
12163;SDS011;6145;50.192;10.064;2022-12-18T10:33:11;36.60;;;22.50;;
12163;SDS011;6145;50.192;10.064;2022-12-18T10:35:43;39.80;;;24.80;;
12163;SDS011;6145;50.192;10.064;2022-12-18T10:38:22;40.07;;;24.20;;
12163;SDS011;6145;50.192;10.064;2022-12-18T10:40:53;45.23;;;26.93;;
12163;SDS011;6145;50.192;10.064;2022-12-18T10:43:21;42.80;;;25.27;;
12163;SDS011;6145;50.192;10.064;2022-12-18T10:46:01;38.50;;;22.70;;
12163;SDS011;6145;50.192;10.064;2022-12-18T10:48:40;36.27;;;23.30;;
12163;SDS011;6145;50.192;10.064;2022-12-18T10:51:19;39.67;;;24.17;;
12163;SDS011;6145;50.192;10.064;2022-12-18T10:53:51;40.13;;;24.53;;
12163;SDS011;6145;50.192;10.064;2022-12-18T10:56:21;44.40;;;25.97;;
12163;SDS011;6145;50.192;10.064;2022-12-18T10:58:55;37.90;;;24.03;;
12163;SDS011;6145;50.192;10.064;2022-12-18T11:01:23;38.67;;;25.90;;
12163;SDS011;6145;50.192;10.064;2022-12-18T11:03:58;46.57;;;27.03;;
12163;SDS011;6145;50.192;10.064;2022-12-18T11:06:27;42.83;;;26.00;;
12163;SDS011;6145;50.192;10.064;2022-12-18T11:08:57;37.33;;;24.50;;
12163;SDS011;6145;50.192;10.064;2022-12-18T11:11:27;42.83;;;26.57;;
12163;SDS011;6145;50.192;10.064;2022-12-18T11:13:57;41.27;;;25.03;;
12163;SDS011;6145;50.192;10.064;2022-12-18T11:16:27;40.77;;;26.03;;
12163;SDS011;6145;50.192;10.064;2022-12-18T11:18:55;37.70;;;23.97;;
12163;SDS011;6145;50.192;10.064;2022-12-18T11:21:41;46.57;;;26.40;;
12163;SDS011;6145;50.192;10.064;2022-12-18T11:24:13;40.47;;;24.43;;
12163;SDS011;6145;50.192;10.064;2022-12-18T11:26:47;36.63;;;22.30;;
12163;SDS011;6145;50.192;10.064;2022-12-18T11:29:16;39.23;;;25.43;;
12163;SDS011;6145;50.192;10.064;2022-12-18T11:31:48;36.33;;;24.43;;
12163;SDS011;6145;50.192;10.064;2022-12-18T11:34:16;35.87;;;24.13;;
12163;SDS011;6145;50.192;10.064;2022-12-18T11:36:48;38.77;;;24.43;;
12163;SDS011;6145;50.192;10.064;2022-12-18T11:39:16;37.67;;;23.43;;
12163;SDS011;6145;50.192;10.064;2022-12-18T11:41:48;41.30;;;26.57;;
12163;SDS011;6145;50.192;10.064;2022-12-18T11:44:42;39.67;;;24.67;;
12163;SDS011;6145;50.192;10.064;2022-12-18T11:47:15;37.67;;;24.70;;
12163;SDS011;6145;50.192;10.064;2022-12-18T11:49:50;39.37;;;23.90;;
12163;SDS011;6145;50.192;10.064;2022-12-18T11:52:19;39.43;;;25.97;;
12163;SDS011;6145;50.192;10.064;2022-12-18T11:54:50;39.50;;;24.50;;
12163;SDS011;6145;50.192;10.064;2022-12-18T11:57:23;37.20;;;24.83;;
12163;SDS011;6145;50.192;10.064;2022-12-18T12:00:00;41.50;;;26.83;;
12163;SDS011;6145;50.192;10.064;2022-12-18T12:02:42;38.87;;;25.07;;
12163;SDS011;6145;50.192;10.064;2022-12-18T12:05:28;40.97;;;24.13;;
12163;SDS011;6145;50.192;10.064;2022-12-18T12:08:06;42.80;;;24.80;;
12163;SDS011;6145;50.192;10.064;2022-12-18T12:10:45;42.53;;;26.67;;
12163;SDS011;6145;50.192;10.064;2022-12-18T12:13:23;36.33;;;25.07;;
12163;SDS011;6145;50.192;10.064;2022-12-18T12:16:04;40.53;;;26.47;;
12163;SDS011;6145;50.192;10.064;2022-12-18T12:18:43;43.13;;;25.87;;
12163;SDS011;6145;50.192;10.064;2022-12-18T12:21:28;42.43;;;26.03;;
12163;SDS011;6145;50.192;10.064;2022-12-18T12:24:07;36.90;;;25.03;;
12163;SDS011;6145;50.192;10.064;2022-12-18T12:26:49;39.73;;;25.43;;
12163;SDS011;6145;50.192;10.064;2022-12-18T12:29:28;43.93;;;26.37;;
12163;SDS011;6145;50.192;10.064;2022-12-18T12:32:07;35.93;;;23.73;;
12163;SDS011;6145;50.192;10.064;2022-12-18T12:34:46;40.37;;;25.17;;
12163;SDS011;6145;50.192;10.064;2022-12-18T12:37:24;35.33;;;24.10;;
12163;SDS011;6145;50.192;10.064;2022-12-18T12:40:01;37.97;;;24.43;;
12163;SDS011;6145;50.192;10.064;2022-12-18T12:42:30;36.37;;;24.13;;
12163;SDS011;6145;50.192;10.064;2022-12-18T12:45:21;36.13;;;23.30;;
12163;SDS011;6145;50.192;10.064;2022-12-18T12:47:54;34.00;;;22.97;;
12163;SDS011;6145;50.192;10.064;2022-12-18T12:50:22;35.50;;;23.07;;
12163;SDS011;6145;50.192;10.064;2022-12-18T12:52:50;34.33;;;21.87;;
12163;SDS011;6145;50.192;10.064;2022-12-18T12:55:20;35.23;;;23.13;;
12163;SDS011;6145;50.192;10.064;2022-12-18T12:57:51;35.83;;;21.40;;
12163;SDS011;6145;50.192;10.064;2022-12-18T13:00:34;39.00;;;24.30;;
12163;SDS011;6145;50.192;10.064;2022-12-18T13:03:08;38.37;;;23.90;;
12163;SDS011;6145;50.192;10.064;2022-12-18T13:05:43;35.90;;;23.40;;
12163;SDS011;6145;50.192;10.064;2022-12-18T13:08:22;40.17;;;23.87;;
12163;SDS011;6145;50.192;10.064;2022-12-18T13:10:50;35.30;;;22.03;;
12163;SDS011;6145;50.192;10.064;2022-12-18T13:13:47;35.70;;;23.17;;
12163;SDS011;6145;50.192;10.064;2022-12-18T13:16:16;35.63;;;22.57;;
12163;SDS011;6145;50.192;10.064;2022-12-18T13:18:48;39.07;;;23.77;;
12163;SDS011;6145;50.192;10.064;2022-12-18T13:21:19;38.60;;;23.27;;
12163;SDS011;6145;50.192;10.064;2022-12-18T13:23:53;37.07;;;22.53;;
12163;SDS011;6145;50.192;10.064;2022-12-18T13:26:30;36.57;;;22.70;;
12163;SDS011;6145;50.192;10.064;2022-12-18T13:28:59;37.80;;;24.60;;
12163;SDS011;6145;50.192;10.064;2022-12-18T13:34:37;38.20;;;24.93;;
12163;SDS011;6145;50.192;10.064;2022-12-18T13:43:27;42.23;;;26.20;;
12163;SDS011;6145;50.192;10.064;2022-12-18T13:46:01;40.33;;;26.83;;
12163;SDS011;6145;50.192;10.064;2022-12-18T13:48:48;34.17;;;23.07;;
12163;SDS011;6145;50.192;10.064;2022-12-18T13:51:22;35.80;;;24.83;;
12163;SDS011;6145;50.192;10.064;2022-12-18T13:53:51;41.07;;;25.93;;
12163;SDS011;6145;50.192;10.064;2022-12-18T13:56:23;35.37;;;23.57;;
12163;SDS011;6145;50.192;10.064;2022-12-18T14:01:41;35.07;;;23.33;;
12163;SDS011;6145;50.192;10.064;2022-12-18T14:04:10;33.73;;;21.80;;
12163;SDS011;6145;50.192;10.064;2022-12-18T14:06:39;36.47;;;23.40;;
12163;SDS011;6145;50.192;10.064;2022-12-18T14:09:10;36.03;;;24.23;;
12163;SDS011;6145;50.192;10.064;2022-12-18T14:11:40;30.53;;;23.13;;
12163;SDS011;6145;50.192;10.064;2022-12-18T14:14:13;33.23;;;23.03;;
12163;SDS011;6145;50.192;10.064;2022-12-18T14:16:40;35.93;;;23.40;;
12163;SDS011;6145;50.192;10.064;2022-12-18T14:19:08;35.57;;;23.00;;
12163;SDS011;6145;50.192;10.064;2022-12-18T14:21:39;35.07;;;22.53;;
12163;SDS011;6145;50.192;10.064;2022-12-18T14:24:12;38.20;;;26.50;;
12163;SDS011;6145;50.192;10.064;2022-12-18T14:26:40;33.77;;;22.73;;
12163;SDS011;6145;50.192;10.064;2022-12-18T14:29:18;40.17;;;24.07;;
12163;SDS011;6145;50.192;10.064;2022-12-18T14:31:50;37.80;;;25.03;;
12163;SDS011;6145;50.192;10.064;2022-12-18T14:34:30;37.77;;;22.97;;
12163;SDS011;6145;50.192;10.064;2022-12-18T14:36:59;35.57;;;24.43;;
12163;SDS011;6145;50.192;10.064;2022-12-18T14:39:25;40.93;;;24.63;;
12163;SDS011;6145;50.192;10.064;2022-12-18T14:41:52;37.27;;;23.97;;
12163;SDS011;6145;50.192;10.064;2022-12-18T14:44:19;35.53;;;23.63;;
12163;SDS011;6145;50.192;10.064;2022-12-18T14:46:48;32.03;;;21.13;;
12163;SDS011;6145;50.192;10.064;2022-12-18T14:49:21;31.50;;;22.60;;
12163;SDS011;6145;50.192;10.064;2022-12-18T14:51:52;33.77;;;22.33;;
12163;SDS011;6145;50.192;10.064;2022-12-18T14:54:22;34.33;;;22.93;;
12163;SDS011;6145;50.192;10.064;2022-12-18T14:56:51;30.20;;;21.37;;
12163;SDS011;6145;50.192;10.064;2022-12-18T14:59:23;32.13;;;22.57;;
12163;SDS011;6145;50.192;10.064;2022-12-18T15:01:54;32.47;;;21.50;;